Time;durP1;ratioP1;P1;durP2;ratioP2;P2;SDS_P1;SDS_P2;PMS_P1;PMS_P2;Temp;Humidity;BMP_temperature;BMP_pressure;BME280_temperature;BME280_humidity;BME280_pressure;Samples;Min_cycle;Max_cycle;Signal;HPM_P1;HPM_P2
2021/03/29 00:00:45;;;;;;;8.90;2.13;;;9.30;99.90;;;;;;5015954;28;20057;-82
2021/03/29 00:03:11;;;;;;;6.30;2.65;;;9.30;99.90;;;;;;5021684;28;20057;-82
2021/03/29 00:05:38;;;;;;;9.30;3.22;;;9.20;99.90;;;;;;5015723;28;20132;-82
2021/03/29 00:08:13;;;;;;;10.32;2.20;;;9.20;99.90;;;;;;5015325;28;20745;-82
2021/03/29 00:10:42;;;;;;;7.93;2.00;;;9.20;99.90;;;;;;5017411;28;20046;-82
2021/03/29 00:13:10;;;;;;;6.97;2.95;;;9.20;99.90;;;;;;5015659;28;20123;-81
2021/03/29 00:15:39;;;;;;;5.90;2.17;;;9.30;99.90;;;;;;5017531;28;20132;-82
2021/03/29 00:18:10;;;;;;;6.38;2.50;;;9.30;99.90;;;;;;5016545;28;20059;-82
2021/03/29 00:20:44;;;;;;;9.73;2.72;;;9.30;99.90;;;;;;5020604;28;20056;-81
2021/03/29 00:23:10;;;;;;;6.30;2.25;;;9.30;99.90;;;;;;5018648;28;20049;-82
2021/03/29 00:25:37;;;;;;;6.20;2.53;;;9.40;99.90;;;;;;5017756;28;20123;-81
2021/03/29 00:28:04;;;;;;;9.45;2.63;;;9.40;99.90;;;;;;5016917;28;20523;-82
2021/03/29 00:30:38;;;;;;;14.38;3.72;;;9.40;99.90;;;;;;5016619;28;20117;-81
2021/03/29 00:33:05;;;;;;;8.43;2.85;;;9.40;99.90;;;;;;5012802;28;20053;-81
2021/03/29 00:35:35;;;;;;;13.88;3.03;;;9.40;99.90;;;;;;5016584;28;20480;-81
2021/03/29 00:38:04;;;;;;;16.38;3.08;;;9.40;99.90;;;;;;5017820;28;20095;-82
2021/03/29 00:40:31;;;;;;;11.63;2.90;;;9.40;99.90;;;;;;5015412;28;20049;-82
2021/03/29 00:43:00;;;;;;;10.60;2.45;;;9.30;99.90;;;;;;5019357;28;20077;-81
2021/03/29 00:45:27;;;;;;;10.52;2.80;;;9.30;99.90;;;;;;5018241;28;20075;-82
2021/03/29 00:47:55;;;;;;;12.48;3.20;;;9.30;99.90;;;;;;5015616;28;20049;-81
2021/03/29 00:50:43;;;;;;;6.28;2.88;;;9.30;99.90;;;;;;5016336;28;20140;-82
2021/03/29 00:53:11;;;;;;;10.88;2.83;;;9.30;99.90;;;;;;5017251;28;20070;-82
2021/03/29 00:55:43;;;;;;;6.60;2.85;;;9.20;99.90;;;;;;5023069;28;20145;-82
2021/03/29 00:58:11;;;;;;;10.88;3.15;;;9.20;99.90;;;;;;5017611;28;20060;-82
2021/03/29 01:00:42;;;;;;;7.93;3.15;;;9.20;99.90;;;;;;5017437;28;20045;-82
2021/03/29 01:03:24;;;;;;;12.38;3.67;;;9.20;99.90;;;;;;5013692;28;20083;-82
2021/03/29 01:06:08;;;;;;;10.32;3.17;;;9.20;99.90;;;;;;5013179;28;20520;-82
2021/03/29 01:08:37;;;;;;;7.15;2.92;;;9.20;99.90;;;;;;5021245;28;20115;-82
2021/03/29 01:11:06;;;;;;;7.40;2.80;;;9.20;99.90;;;;;;5015355;28;20466;-80
2021/03/29 01:13:34;;;;;;;9.60;3.42;;;9.20;99.90;;;;;;5019068;28;20061;-79
2021/03/29 01:16:03;;;;;;;12.02;3.65;;;9.20;99.90;;;;;;5026290;28;20799;-81
2021/03/29 01:18:31;;;;;;;5.85;2.83;;;9.10;99.90;;;;;;5016565;28;20055;-82
2021/03/29 01:21:09;;;;;;;11.50;3.58;;;9.10;99.90;;;;;;5015279;28;20135;-82
2021/03/29 01:23:37;;;;;;;12.63;3.85;;;9.10;99.90;;;;;;5033316;28;20052;-82
2021/03/29 01:26:15;;;;;;;14.35;3.85;;;9.10;99.90;;;;;;5016337;28;20077;-82
2021/03/29 01:28:43;;;;;;;11.43;3.92;;;9.10;99.90;;;;;;5015810;28;20070;-82
2021/03/29 01:31:09;;;;;;;12.70;4.43;;;9.10;99.90;;;;;;5017473;28;20057;-82
2021/03/29 01:33:38;;;;;;;15.63;4.10;;;9.10;99.90;;;;;;5020874;28;20203;-82
2021/03/29 01:36:04;;;;;;;12.40;3.83;;;9.10;99.90;;;;;;5013398;28;20045;-82
2021/03/29 01:38:31;;;;;;;8.43;3.60;;;9.00;99.90;;;;;;5016414;28;20056;-82
2021/03/29 01:40:58;;;;;;;15.48;3.85;;;9.10;99.90;;;;;;5013080;28;20053;-83
2021/03/29 01:43:27;;;;;;;9.88;3.17;;;9.10;99.90;;;;;;5018428;28;20145;-82
2021/03/29 01:45:56;;;;;;;10.15;3.72;;;9.10;99.90;;;;;;5016516;28;20056;-82
2021/03/29 01:48:23;;;;;;;12.85;4.25;;;9.00;99.90;;;;;;5016077;28;20122;-82
2021/03/29 01:50:53;;;;;;;13.57;4.38;;;9.00;99.90;;;;;;5020571;28;20059;-82
2021/03/29 01:53:23;;;;;;;8.32;3.60;;;9.00;99.90;;;;;;5014664;28;20056;-82
2021/03/29 01:55:51;;;;;;;10.55;4.20;;;9.00;99.90;;;;;;5009156;28;20130;-82
2021/03/29 01:58:18;;;;;;;8.80;3.72;;;9.10;99.90;;;;;;5018789;28;20057;-82
2021/03/29 02:00:58;;;;;;;18.42;3.90;;;9.10;99.90;;;;;;5016394;28;20160;-82
2021/03/29 02:03:25;;;;;;;11.25;3.88;;;9.10;99.90;;;;;;5015693;28;20740;-82
2021/03/29 02:05:53;;;;;;;9.45;3.80;;;9.10;99.90;;;;;;5017843;28;20452;-82
2021/03/29 02:08:21;;;;;;;15.30;4.95;;;9.10;99.90;;;;;;5016221;28;20126;-82
2021/03/29 02:10:49;;;;;;;11.32;4.45;;;9.10;99.90;;;;;;5012505;28;20053;-82
2021/03/29 02:13:17;;;;;;;9.95;4.13;;;9.10;99.90;;;;;;5019276;28;20059;-82
2021/03/29 02:15:46;;;;;;;7.82;4.10;;;9.00;99.90;;;;;;5031122;28;20105;-82
2021/03/29 02:18:18;;;;;;;13.70;4.60;;;9.00;99.90;;;;;;5016155;28;20041;-82
2021/03/29 02:20:46;;;;;;;9.02;4.50;;;9.10;99.90;;;;;;5022468;28;20128;-83
2021/03/29 02:23:15;;;;;;;11.75;4.65;;;9.00;99.90;;;;;;5014434;28;20196;-83
2021/03/29 02:25:42;;;;;;;13.10;4.68;;;9.00;99.90;;;;;;5016754;28;20061;-83
2021/03/29 02:28:08;;;;;;;14.48;5.53;;;9.00;99.90;;;;;;5013990;28;20053;-82
2021/03/29 02:30:37;;;;;;;15.73;4.72;;;9.00;99.90;;;;;;5013429;28;20072;-83
2021/03/29 02:33:06;;;;;;;11.18;4.68;;;9.00;99.90;;;;;;5015672;28;20049;-83
2021/03/29 02:35:33;;;;;;;11.35;5.07;;;8.90;99.90;;;;;;5015411;28;20045;-83
2021/03/29 02:37:59;;;;;;;15.20;6.70;;;8.90;99.90;;;;;;5015332;28;20069;-82
2021/03/29 02:40:27;;;;;;;12.27;5.68;;;8.90;99.90;;;;;;5014250;28;20064;-82
2021/03/29 02:42:56;;;;;;;14.23;5.97;;;8.80;99.90;;;;;;5011333;28;20768;-82
2021/03/29 02:45:32;;;;;;;13.40;5.30;;;8.80;99.90;;;;;;5015440;28;20084;-82
2021/03/29 02:48:08;;;;;;;12.75;6.45;;;8.80;99.90;;;;;;5014236;28;20116;-82
2021/03/29 02:50:37;;;;;;;16.63;6.38;;;8.80;99.90;;;;;;5016953;28;20141;-82
2021/03/29 02:53:08;;;;;;;10.18;5.68;;;8.80;99.90;;;;;;5013393;28;20053;-82
2021/03/29 02:55:36;;;;;;;14.73;5.80;;;8.80;99.90;;;;;;5015535;28;20136;-81
2021/03/29 02:58:04;;;;;;;9.50;5.32;;;8.80;99.90;;;;;;5017828;28;20061;-82
2021/03/29 03:00:33;;;;;;;14.02;5.60;;;8.70;99.90;;;;;;5028009;28;20064;-83
2021/03/29 03:03:02;;;;;;;13.05;6.85;;;8.70;99.90;;;;;;5015781;28;20076;-83
2021/03/29 03:05:31;;;;;;;12.98;5.68;;;8.70;99.90;;;;;;5015158;28;20049;-83
2021/03/29 03:07:58;;;;;;;9.00;4.45;;;8.70;99.90;;;;;;5013898;28;20660;-83
2021/03/29 03:10:27;;;;;;;11.60;4.93;;;8.60;99.90;;;;;;5014697;28;20101;-83
2021/03/29 03:12:55;;;;;;;11.63;5.97;;;8.60;99.90;;;;;;5016193;28;20045;-82
2021/03/29 03:15:24;;;;;;;20.48;5.78;;;8.60;99.90;;;;;;5016587;28;20107;-83
2021/03/29 03:17:52;;;;;;;8.40;4.35;;;8.60;99.90;;;;;;5030397;28;20064;-83
2021/03/29 03:20:18;;;;;;;13.40;4.75;;;8.60;99.90;;;;;;5018095;28;20105;-83
2021/03/29 03:22:48;;;;;;;21.15;6.13;;;8.60;99.90;;;;;;5015504;28;20049;-83
2021/03/29 03:25:20;;;;;;;7.60;4.53;;;8.60;99.90;;;;;;5018839;28;20041;-83
2021/03/29 03:27:46;;;;;;;10.98;5.15;;;8.70;99.90;;;;;;5020475;28;20109;-83
2021/03/29 03:30:44;;;;;;;13.95;5.15;;;8.60;99.90;;;;;;5017695;28;20065;-83
2021/03/29 03:33:12;;;;;;;12.07;5.07;;;8.70;99.90;;;;;;5018925;28;20057;-83
2021/03/29 03:35:40;;;;;;;12.35;5.40;;;8.70;99.90;;;;;;5019072;28;20057;-83
2021/03/29 03:38:10;;;;;;;10.43;4.50;;;8.70;99.90;;;;;;5016833;28;20053;-83
2021/03/29 03:40:38;;;;;;;13.50;5.22;;;8.70;99.90;;;;;;5021390;28;20133;-83
2021/03/29 03:43:06;;;;;;;13.35;5.45;;;8.70;99.90;;;;;;5016379;28;20140;-83
2021/03/29 03:45:41;;;;;;;15.82;5.75;;;8.70;99.90;;;;;;5016432;28;20053;-83
2021/03/29 03:48:10;;;;;;;14.13;4.82;;;8.70;99.90;;;;;;5017415;28;20505;-83
2021/03/29 03:50:37;;;;;;;16.85;4.85;;;8.70;99.90;;;;;;5016389;28;20046;-83
2021/03/29 03:53:05;;;;;;;11.52;4.72;;;8.70;99.90;;;;;;5017460;28;20668;-83
2021/03/29 03:55:32;;;;;;;15.50;5.30;;;8.70;99.90;;;;;;5017219;28;20053;-83
2021/03/29 03:57:59;;;;;;;14.77;4.88;;;8.70;99.90;;;;;;5018193;28;20062;-83
2021/03/29 04:00:26;;;;;;;17.58;5.43;;;8.70;99.90;;;;;;5029878;28;20049;-83
2021/03/29 04:02:52;;;;;;;18.77;5.95;;;8.70;99.90;;;;;;5018440;28;20054;-83
2021/03/29 04:05:19;;;;;;;20.05;6.38;;;8.70;99.90;;;;;;5017755;28;20127;-83
2021/03/29 04:08:05;;;;;;;12.73;5.60;;;8.80;99.90;;;;;;5017125;28;20142;-83
2021/03/29 04:10:44;;;;;;;15.13;4.60;;;8.80;99.90;;;;;;5017811;28;20149;-83
2021/03/29 04:13:17;;;;;;;14.52;4.93;;;8.90;99.90;;;;;;5015658;28;20052;-83
2021/03/29 04:15:44;;;;;;;12.20;5.25;;;8.90;99.90;;;;;;5014596;28;20045;-82
2021/03/29 04:18:10;;;;;;;13.27;4.38;;;8.90;99.90;;;;;;5018216;28;20063;-83
2021/03/29 04:20:37;;;;;;;19.10;5.28;;;9.00;99.90;;;;;;5018654;28;20489;-82
2021/03/29 04:23:03;;;;;;;12.40;4.80;;;9.00;99.90;;;;;;5030362;28;20129;-83
2021/03/29 04:25:30;;;;;;;13.98;4.57;;;9.00;99.90;;;;;;5024121;28;20092;-83
2021/03/29 04:27:56;;;;;;;12.70;5.60;;;9.00;99.90;;;;;;5020514;28;20247;-82
2021/03/29 04:30:23;;;;;;;14.77;4.82;;;9.00;99.90;;;;;;5025514;28;20025;-82
2021/03/29 04:32:52;;;;;;;12.98;4.47;;;9.00;99.90;;;;;;5024388;28;20109;-81
2021/03/29 04:35:21;;;;;;;11.50;5.35;;;8.90;99.90;;;;;;5023772;28;20140;-82
2021/03/29 04:37:51;;;;;;;14.43;4.72;;;8.90;99.90;;;;;;5021558;28;20281;-82
2021/03/29 04:40:20;;;;;;;11.80;4.70;;;8.80;99.90;;;;;;5019060;28;20513;-83
2021/03/29 04:42:46;;;;;;;10.00;4.43;;;8.80;99.90;;;;;;5017856;28;20147;-83
2021/03/29 04:45:13;;;;;;;14.65;5.07;;;8.70;99.90;;;;;;5018514;28;20053;-83
2021/03/29 04:47:39;;;;;;;15.02;5.70;;;8.70;99.90;;;;;;5014273;28;20076;-83
2021/03/29 04:50:07;;;;;;;12.77;4.75;;;8.70;99.90;;;;;;5016937;28;20599;-83
2021/03/29 04:52:33;;;;;;;15.48;4.60;;;8.70;99.90;;;;;;5018303;28;20053;-83
2021/03/29 04:55:00;;;;;;;12.93;4.18;;;8.70;99.90;;;;;;5020204;28;22655;-83
2021/03/29 04:57:26;;;;;;;12.50;4.47;;;8.70;99.90;;;;;;5017469;28;20045;-83
2021/03/29 04:59:52;;;;;;;13.95;5.78;;;8.60;99.90;;;;;;5022889;28;20139;-83
2021/03/29 05:02:19;;;;;;;12.68;4.22;;;8.60;99.90;;;;;;5017125;28;20115;-83
2021/03/29 05:04:45;;;;;;;10.70;3.97;;;8.60;99.90;;;;;;5018314;28;20432;-83
2021/03/29 05:07:13;;;;;;;13.77;4.10;;;8.60;99.90;;;;;;5015928;28;20124;-83
2021/03/29 05:09:39;;;;;;;12.50;4.82;;;8.60;99.90;;;;;;5016281;28;20069;-82
2021/03/29 05:12:11;;;;;;;12.80;5.30;;;8.60;99.90;;;;;;5011970;28;20084;-82
2021/03/29 05:14:40;;;;;;;8.93;4.38;;;8.60;99.90;;;;;;5018810;28;20177;-83
2021/03/29 05:17:08;;;;;;;15.48;4.53;;;8.60;99.90;;;;;;5016832;28;20049;-83
2021/03/29 05:19:35;;;;;;;15.77;5.28;;;8.50;99.90;;;;;;5016645;28;20558;-83
2021/03/29 05:22:03;;;;;;;16.75;4.45;;;8.60;99.90;;;;;;5018594;28;20083;-82
2021/03/29 05:24:29;;;;;;;16.38;4.38;;;8.60;99.90;;;;;;5016044;28;20149;-82
2021/03/29 05:26:55;;;;;;;13.57;5.75;;;8.50;99.90;;;;;;5024705;28;20058;-83
2021/03/29 05:29:27;;;;;;;16.92;4.22;;;8.50;99.90;;;;;;5016897;28;20136;-83
2021/03/29 05:31:58;;;;;;;9.52;3.85;;;8.50;99.90;;;;;;5014136;28;20092;-84
2021/03/29 05:34:24;;;;;;;14.07;4.15;;;8.50;99.90;;;;;;5016950;28;20099;-82
2021/03/29 05:36:51;;;;;;;12.02;4.03;;;8.50;99.90;;;;;;5017636;28;20060;-83
2021/03/29 05:39:18;;;;;;;11.82;4.80;;;8.50;99.90;;;;;;5017102;28;20064;-84
2021/03/29 05:41:44;;;;;;;10.38;4.38;;;8.50;99.90;;;;;;5016469;28;20077;-84
2021/03/29 05:44:11;;;;;;;10.27;3.55;;;8.50;99.90;;;;;;5013090;28;20049;-83
2021/03/29 05:46:39;;;;;;;8.10;3.70;;;8.50;99.90;;;;;;5012981;28;20542;-84
2021/03/29 05:49:06;;;;;;;16.20;4.68;;;8.50;99.90;;;;;;5011762;28;20065;-81
2021/03/29 05:51:38;;;;;;;11.25;3.60;;;8.50;99.90;;;;;;5007733;28;20050;-83
2021/03/29 05:54:06;;;;;;;11.07;4.10;;;8.50;99.90;;;;;;5011070;28;20060;-84
2021/03/29 05:56:34;;;;;;;11.95;4.45;;;8.50;99.90;;;;;;5012469;28;20513;-79
2021/03/29 06:01:49;;;;;;;8.80;3.65;;;8.60;99.90;;;;;;5031700;28;20140;-81
2021/03/29 06:04:48;;;;;;;13.75;3.80;;;8.60;99.90;;;;;;5015210;28;20122;-81
2021/03/29 06:07:17;;;;;;;10.77;4.22;;;8.70;99.90;;;;;;5033623;28;20568;-81
2021/03/29 06:09:45;;;;;;;17.80;3.55;;;8.70;99.90;;;;;;5014975;28;20049;-79
2021/03/29 06:12:14;;;;;;;11.25;4.82;;;8.80;99.90;;;;;;5013331;28;20135;-80
2021/03/29 06:14:43;;;;;;;11.30;4.18;;;8.90;99.90;;;;;;5007807;28;20116;-80
2021/03/29 06:17:10;;;;;;;14.23;3.97;;;8.90;99.90;;;;;;5020876;28;20059;-79
2021/03/29 06:19:49;;;;;;;7.50;3.65;;;8.90;99.90;;;;;;5032618;28;20071;-80
2021/03/29 06:22:33;;;;;;;14.05;4.07;;;9.00;99.90;;;;;;5035985;28;20165;-80
2021/03/29 06:25:19;;;;;;;12.77;3.92;;;9.10;99.90;;;;;;5030186;28;20049;-80
2021/03/29 06:27:47;;;;;;;15.93;3.80;;;9.10;99.90;;;;;;5009427;28;20072;-81
2021/03/29 06:30:20;;;;;;;6.70;2.95;;;9.20;99.90;;;;;;5032430;28;20507;-81
2021/03/29 06:33:07;;;;;;;9.73;3.17;;;9.30;99.90;;;;;;5021368;28;20056;-81
2021/03/29 06:35:40;;;;;;;11.52;3.55;;;9.40;99.90;;;;;;5034586;28;20045;-81
2021/03/29 06:38:24;;;;;;;8.15;3.03;;;9.60;99.90;;;;;;5021470;28;20132;-81
2021/03/29 06:40:50;;;;;;;13.93;3.58;;;9.70;99.90;;;;;;5035400;28;20042;-81
2021/03/29 06:43:21;;;;;;;10.10;4.13;;;9.90;99.90;;;;;;5015250;28;20609;-81
2021/03/29 06:45:51;;;;;;;11.90;3.25;;;10.10;99.90;;;;;;5028583;28;20105;-80
2021/03/29 06:48:23;;;;;;;15.40;3.80;;;10.20;99.90;;;;;;5004283;28;20081;-80
2021/03/29 06:51:06;;;;;;;12.95;4.28;;;10.40;99.90;;;;;;5020559;28;20053;-80
2021/03/29 06:53:32;;;;;;;11.02;3.67;;;10.60;99.90;;;;;;5021130;28;20045;-81
2021/03/29 06:56:20;;;;;;;12.15;3.33;;;10.80;99.90;;;;;;5019224;28;20134;-80
2021/03/29 06:58:48;;;;;;;11.05;3.63;;;11.10;99.90;;;;;;5014263;28;20053;-81
2021/03/29 07:01:20;;;;;;;11.48;3.33;;;11.30;99.90;;;;;;5020757;28;20041;-80
2021/03/29 07:03:48;;;;;;;18.27;5.15;;;11.50;99.90;;;;;;5028169;28;20059;-80
2021/03/29 07:06:21;;;;;;;10.48;3.75;;;11.50;99.90;;;;;;5006565;28;20108;-80
2021/03/29 07:08:48;;;;;;;;;;;11.50;99.90;;;;;;5036310;28;20442;-80
2021/03/29 07:11:16;;;;;;;13.65;3.28;;;11.40;99.90;;;;;;5023082;28;20504;-80
2021/03/29 07:13:44;;;;;;;8.45;3.47;;;11.40;99.90;;;;;;5027132;28;20476;-79
2021/03/29 07:16:11;;;;;;;10.55;3.22;;;11.30;99.90;;;;;;5005901;28;20210;-80
2021/03/29 07:18:39;;;;;;;8.05;3.42;;;11.30;99.90;;;;;;5019254;28;20060;-80
2021/03/29 07:21:09;;;;;;;9.43;3.67;;;11.30;99.90;;;;;;5022476;28;20049;-81
2021/03/29 07:23:38;;;;;;;14.00;4.63;;;11.30;99.90;;;;;;5021837;28;20045;-80
2021/03/29 07:26:28;;;;;;;9.40;3.10;;;11.40;99.90;;;;;;5029705;28;20143;-80
2021/03/29 07:28:55;;;;;;;7.55;3.85;;;11.40;99.90;;;;;;5010760;28;20519;-80
2021/03/29 07:31:39;;;;;;;10.35;3.10;;;11.40;99.90;;;;;;5023176;28;20083;-80
2021/03/29 07:34:05;;;;;;;13.48;3.47;;;11.50;99.90;;;;;;5023035;28;20048;-80
2021/03/29 07:37:01;;;;;;;16.35;6.00;;;11.50;99.90;;;;;;5026555;28;20456;-80
2021/03/29 07:39:38;;;;;;;10.57;3.55;;;11.60;99.90;;;;;;5026818;28;20041;-80
2021/03/29 07:42:23;;;;;;;10.77;3.83;;;11.70;99.90;;;;;;5019226;28;20059;-81
2021/03/29 07:44:59;;;;;;;9.30;4.07;;;11.70;99.90;;;;;;5041232;28;20665;-81
2021/03/29 07:47:58;;;;;;;7.40;2.70;;;11.80;99.90;;;;;;5022833;28;20041;-80
2021/03/29 07:50:25;;;;;;;7.25;3.20;;;11.90;99.90;;;;;;4991817;28;20046;-81
2021/03/29 07:53:03;;;;;;;18.63;3.97;;;12.00;99.90;;;;;;5025603;28;20067;-80
2021/03/29 07:55:35;;;;;;;11.82;4.53;;;12.10;99.90;;;;;;5035955;28;20049;-81
2021/03/29 07:58:03;;;;;;;13.00;3.75;;;12.20;99.90;;;;;;5020802;28;20060;-83
2021/03/29 08:00:32;;;;;;;7.88;2.80;;;12.30;99.90;;;;;;5028551;28;20151;-82
2021/03/29 08:03:10;;;;;;;10.07;3.78;;;12.40;99.90;;;;;;5004526;28;20884;-80
2021/03/29 08:05:44;;;;;;;8.45;3.42;;;12.50;99.90;;;;;;5021896;28;20527;-80
2021/03/29 08:08:26;;;;;;;;;;;12.60;99.90;;;;;;5025718;28;20052;-78
2021/03/29 08:10:57;;;;;;;9.82;3.85;;;12.60;99.90;;;;;;5032132;28;19924;-79
2021/03/29 08:13:50;;;;;;;13.25;3.53;;;12.80;99.90;;;;;;5021370;28;20706;-80
2021/03/29 08:16:22;;;;;;;14.35;3.63;;;12.80;99.90;;;;;;5030585;28;20136;-81
2021/03/29 08:19:08;;;;;;;10.75;4.10;;;13.00;99.90;;;;;;5024081;28;20480;-81
2021/03/29 08:22:14;;;;;;;15.88;4.25;;;13.20;99.90;;;;;;5039575;28;20132;-82
2021/03/29 08:24:43;;;;;;;9.90;3.00;;;13.40;99.90;;;;;;5039846;28;20079;-80
2021/03/29 08:27:15;;;;;;;13.90;4.60;;;13.70;99.90;;;;;;5025130;28;20048;-81
2021/03/29 08:29:46;;;;;;;10.55;3.35;;;13.90;99.90;;;;;;5025248;28;20064;-81
2021/03/29 08:32:30;;;;;;;11.43;3.17;;;14.00;99.90;;;;;;5026214;28;20057;-82
2021/03/29 08:35:11;;;;;;;8.70;3.17;;;14.10;99.90;;;;;;5015279;28;20555;-81
2021/03/29 08:37:49;;;;;;;10.55;3.50;;;14.00;99.90;;;;;;5025868;28;20052;-81
2021/03/29 08:40:15;;;;;;;14.45;3.67;;;14.00;99.90;;;;;;5039789;28;20172;-81
2021/03/29 08:42:49;;;;;;;9.70;4.13;;;14.00;99.90;;;;;;5023899;28;20139;-82
2021/03/29 08:45:22;;;;;;;10.77;3.05;;;14.00;99.90;;;;;;5023616;28;20105;-82
2021/03/29 08:47:53;;;;;;;10.82;3.15;;;13.90;99.90;;;;;;5036283;28;20112;-82
2021/03/29 08:50:22;;;;;;;10.02;3.25;;;13.90;99.90;;;;;;5023139;28;20775;-84
2021/03/29 08:52:54;;;;;;;16.88;3.85;;;14.00;99.90;;;;;;5012363;28;20076;-83
2021/03/29 08:55:23;;;;;;;13.75;3.78;;;14.10;99.90;;;;;;5024083;28;20095;-83
2021/03/29 08:57:51;;;;;;;9.52;3.13;;;14.10;99.90;;;;;;5024007;28;20045;-82
2021/03/29 09:00:20;;;;;;;14.43;3.42;;;14.20;99.90;;;;;;5022632;28;20140;-81
2021/03/29 09:02:47;;;;;;;14.27;3.67;;;14.20;99.90;;;;;;5025764;28;20090;-83
2021/03/29 09:05:16;;;;;;;13.32;3.45;;;14.30;99.90;;;;;;5021471;28;20048;-83
2021/03/29 09:07:53;;;;;;;12.55;4.32;;;14.30;99.90;;;;;;5010804;28;20115;-83
2021/03/29 09:10:25;;;;;;;12.30;3.30;;;14.30;99.90;;;;;;5024815;28;20044;-83
2021/03/29 09:13:19;;;;;;;14.30;4.30;;;14.40;99.90;;;;;;5026042;28;20049;-82
2021/03/29 09:15:51;;;;;;;;;;;14.40;99.90;;;;;;5019214;28;20051;-83
2021/03/29 09:18:24;;;;;;;14.32;3.50;;;14.50;99.90;;;;;;5036391;28;19974;-83
2021/03/29 09:20:53;;;;;;;16.55;4.60;;;14.50;99.90;;;;;;5027103;28;20435;-82
2021/03/29 09:23:21;;;;;;;11.82;3.30;;;14.60;99.90;;;;;;5019448;28;20064;-81
2021/03/29 09:25:49;;;;;;;10.68;3.60;;;14.70;99.90;;;;;;5025629;28;20072;-82
2021/03/29 09:31:19;;;;;;;11.57;3.72;;;14.80;99.90;;;;;;5041044;28;20100;-81
2021/03/29 09:33:46;;;;;;;17.65;4.88;;;14.80;99.90;;;;;;5022140;28;20052;-83
2021/03/29 09:36:16;;;;;;;14.40;4.60;;;14.90;99.90;;;;;;5023274;28;20636;-82
2021/03/29 09:38:52;;;;;;;14.88;4.45;;;15.10;99.90;;;;;;5026243;28;20064;-83
2021/03/29 09:41:22;;;;;;;12.23;3.78;;;15.10;99.90;;;;;;5029388;28;20053;-83
2021/03/29 09:43:52;;;;;;;9.93;4.15;;;15.20;99.90;;;;;;5028794;28;20075;-81
2021/03/29 09:46:29;;;;;;;16.30;3.83;;;15.30;99.90;;;;;;5040830;28;20381;-83
2021/03/29 09:49:13;;;;;;;11.20;3.67;;;15.40;99.90;;;;;;5020929;28;20091;-82
2021/03/29 09:51:41;;;;;;;13.18;3.90;;;15.50;99.90;;;;;;5022822;28;20111;-82
2021/03/29 09:54:31;;;;;;;10.00;3.28;;;15.60;99.90;;;;;;5020345;28;20060;-83
2021/03/29 09:57:11;;;;;;;11.02;4.05;;;15.70;99.90;;;;;;5020471;28;20054;-83
2021/03/29 09:59:39;;;;;;;24.50;4.10;;;15.80;99.90;;;;;;5018913;28;20053;-82
2021/03/29 10:02:25;;;;;;;14.13;4.57;;;15.90;99.90;;;;;;5040501;28;20133;-82
2021/03/29 10:05:06;;;;;;;11.43;3.53;;;16.00;99.90;;;;;;5040209;28;20057;-82
2021/03/29 10:07:40;;;;;;;11.13;3.65;;;16.00;99.90;;;;;;5025464;28;20083;-82
2021/03/29 10:10:07;;;;;;;8.90;3.17;;;16.00;99.90;;;;;;5025447;28;20055;-83
2021/03/29 10:12:35;;;;;;;10.32;3.55;;;16.10;99.90;;;;;;5022721;28;20052;-84
2021/03/29 10:15:09;;;;;;;13.65;3.83;;;16.10;99.90;;;;;;5023633;28;20066;-82
2021/03/29 10:17:36;;;;;;;12.13;3.65;;;16.10;99.90;;;;;;5011573;28;20496;-82
2021/03/29 10:20:13;;;;;;;14.85;4.88;;;16.10;99.90;;;;;;5019547;28;20104;-79
2021/03/29 10:22:40;;;;;;;11.48;3.70;;;16.10;99.90;;;;;;5032757;28;20168;-80
2021/03/29 10:25:16;;;;;;;9.10;3.53;;;16.20;99.90;;;;;;5018302;28;20041;-80
2021/03/29 10:27:49;;;;;;;9.95;4.20;;;16.20;99.90;;;;;;5018921;28;20426;-80
2021/03/29 10:30:19;;;;;;;14.23;3.67;;;16.20;99.90;;;;;;5020831;28;20132;-80
2021/03/29 10:32:50;;;;;;;13.50;4.70;;;16.30;99.90;;;;;;5034924;28;20072;-80
2021/03/29 10:35:16;;;;;;;10.85;3.50;;;16.40;99.90;;;;;;5017883;28;20143;-80
2021/03/29 10:37:43;;;;;;;13.85;4.20;;;16.50;99.90;;;;;;5025305;28;20145;-81
2021/03/29 10:40:10;;;;;;;14.82;4.30;;;16.50;99.90;;;;;;5018690;28;20053;-80
2021/03/29 10:42:40;;;;;;;12.93;3.50;;;16.60;99.90;;;;;;5015998;28;20077;-80
2021/03/29 10:45:14;;;;;;;9.23;3.63;;;16.70;99.90;;;;;;5021152;28;20048;-79
2021/03/29 10:47:42;;;;;;;8.83;3.30;;;16.70;99.90;;;;;;5018711;28;20823;-80
2021/03/29 10:50:11;;;;;;;13.77;4.50;;;16.80;99.90;;;;;;4990175;28;20461;-79
2021/03/29 10:52:38;;;;;;;13.68;4.13;;;16.90;99.90;;;;;;5009844;28;20049;-79
2021/03/29 10:55:06;;;;;;;11.00;3.70;;;17.00;99.90;;;;;;5008457;28;20077;-80
2021/03/29 10:57:32;;;;;;;11.63;4.35;;;17.20;99.90;;;;;;5018596;28;20148;-80
2021/03/29 10:59:58;;;;;;;13.43;4.43;;;17.20;99.90;;;;;;5016886;28;20499;-79
2021/03/29 11:02:25;;;;;;;12.90;4.47;;;17.30;99.90;;;;;;5017258;28;20049;-79
2021/03/29 11:04:52;;;;;;;11.77;4.45;;;17.50;99.90;;;;;;5020617;28;20052;-78
2021/03/29 11:07:19;;;;;;;18.38;4.22;;;17.60;99.90;;;;;;5017290;28;20051;-78
2021/03/29 11:09:45;;;;;;;11.65;3.83;;;17.80;99.60;;;;;;5019781;28;20086;-78
2021/03/29 11:12:11;;;;;;;10.80;4.22;;;17.90;99.90;;;;;;5019900;28;20215;-80
2021/03/29 11:14:37;;;;;;;12.77;4.00;;;17.90;99.00;;;;;;5036241;28;20052;-80
2021/03/29 11:17:04;;;;;;;10.73;4.13;;;17.90;98.80;;;;;;5020603;28;20146;-81
2021/03/29 11:19:30;;;;;;;14.40;4.28;;;17.80;98.60;;;;;;5008504;28;20055;-80
2021/03/29 11:21:57;;;;;;;9.55;3.83;;;17.80;99.30;;;;;;5018538;28;20049;-78
2021/03/29 11:24:23;;;;;;;12.65;3.88;;;17.80;99.60;;;;;;5017367;28;20136;-79
2021/03/29 11:26:49;;;;;;;9.60;3.95;;;17.90;98.40;;;;;;5019487;28;20053;-80
2021/03/29 11:29:17;;;;;;;15.20;5.95;;;17.80;98.10;;;;;;5034676;28;20484;-81
2021/03/29 11:31:44;;;;;;;11.32;3.97;;;17.80;99.50;;;;;;5037479;28;20053;-81
2021/03/29 11:34:11;;;;;;;10.63;4.40;;;17.80;99.80;;;;;;5021288;28;20072;-80
2021/03/29 11:36:38;;;;;;;11.10;3.80;;;17.90;97.90;;;;;;5034676;28;20137;-79
2021/03/29 11:39:07;;;;;;;9.88;3.72;;;18.00;99.20;;;;;;5022927;28;20134;-80
2021/03/29 11:41:34;;;;;;;15.27;4.93;;;18.10;99.90;;;;;;5019479;28;20049;-79
2021/03/29 11:44:03;;;;;;;15.25;4.30;;;18.20;98.70;;;;;;5034703;28;20881;-80
2021/03/29 11:46:29;;;;;;;10.32;3.92;;;18.30;97.20;;;;;;5021832;28;20133;-81
2021/03/29 11:48:56;;;;;;;14.02;3.85;;;18.40;99.00;;;;;;5026624;28;20478;-79
2021/03/29 11:51:22;;;;;;;10.48;3.83;;;18.70;97.80;;;;;;5021121;28;20184;-80
2021/03/29 11:53:49;;;;;;;13.07;4.03;;;18.80;96.00;;;;;;5010198;28;20129;-80
2021/03/29 11:56:15;;;;;;;12.23;3.60;;;18.80;94.60;;;;;;5021260;28;20081;-79
2021/03/29 11:58:42;;;;;;;8.60;3.83;;;18.80;94.30;;;;;;5019651;28;20095;-80
2021/03/29 12:01:21;;;;;;;10.07;4.47;;;18.70;95.70;;;;;;5019083;28;20122;-80
2021/03/29 12:03:55;;;;;;;14.77;4.72;;;18.80;97.20;;;;;;5021028;28;20103;-81
2021/03/29 12:06:30;;;;;;;19.55;4.57;;;19.10;94.70;;;;;;5021335;28;20157;-80
2021/03/29 12:12:00;;;;;;;12.85;3.65;;;19.30;95.20;;;;;;5004713;28;20041;-79
2021/03/29 12:14:38;;;;;;;14.82;4.28;;;19.70;94.40;;;;;;5020434;28;20065;-79
2021/03/29 12:17:06;;;;;;;8.32;3.67;;;20.00;92.90;;;;;;5021493;28;20048;-80
2021/03/29 12:19:35;;;;;;;13.30;3.75;;;20.20;92.10;;;;;;5024132;28;20057;-79
2021/03/29 12:22:18;;;;;;;8.85;3.13;;;20.40;90.20;;;;;;5004933;28;20053;-80
2021/03/29 12:24:47;;;;;;;8.27;3.08;;;20.60;84.70;;;;;;5031172;28;20108;-79
2021/03/29 12:27:14;;;;;;;9.63;3.30;;;20.80;82.00;;;;;;5021233;28;20052;-80
2021/03/29 12:29:43;;;;;;;15.45;3.60;;;21.00;81.80;;;;;;5025215;28;20135;-81
2021/03/29 12:32:18;;;;;;;13.63;4.85;;;21.30;80.10;;;;;;5039471;28;20077;-82
2021/03/29 12:34:47;;;;;;;10.55;3.88;;;21.50;78.10;;;;;;5023041;28;20053;-83
2021/03/29 12:37:16;;;;;;;19.50;4.22;;;21.90;73.50;;;;;;5030543;28;20059;-82
2021/03/29 12:39:46;;;;;;;8.75;3.40;;;22.40;70.40;;;;;;5028533;28;20076;-78
2021/03/29 12:42:14;;;;;;;10.43;3.60;;;23.00;70.80;;;;;;5019356;28;20053;-82
2021/03/29 12:44:42;;;;;;;12.43;3.50;;;23.70;65.00;;;;;;5020481;28;20049;-82
2021/03/29 12:47:10;;;;;;;9.43;3.58;;;24.20;61.50;;;;;;5023325;28;20135;-81
2021/03/29 12:49:37;;;;;;;7.07;3.33;;;24.80;60.00;;;;;;5023592;28;20068;-81
2021/03/29 12:52:04;;;;;;;10.60;3.40;;;25.30;57.20;;;;;;5020967;28;20552;-82
2021/03/29 12:54:36;;;;;;;8.55;3.65;;;25.90;57.10;;;;;;5040741;28;20057;-82
2021/03/29 12:57:04;;;;;;;12.70;4.05;;;26.50;53.00;;;;;;5039309;28;20111;-82
2021/03/29 12:59:32;;;;;;;9.48;3.65;;;26.90;51.30;;;;;;5040293;28;20050;-82
2021/03/29 13:01:59;;;;;;;9.13;4.22;;;27.20;49.60;;;;;;5022921;28;20064;-81
2021/03/29 13:09:46;;;;;;;10.27;3.58;;;27.50;49.70;;;;;;5039242;28;20115;-80
2021/03/29 13:12:14;;;;;;;12.40;4.35;;;27.60;47.30;;;;;;5019257;28;20049;-80
2021/03/29 13:15:01;;;;;;;6.97;3.60;;;27.40;47.50;;;;;;5036427;28;20499;-80
2021/03/29 13:17:29;;;;;;;11.80;3.47;;;27.40;47.40;;;;;;5017485;28;20076;-81